createdAt,value
2023-03-16T00:02:20.678Z,9.20
2023-03-16T00:04:52.616Z,9.16
2023-03-16T00:07:24.764Z,9.15
2023-03-16T00:09:56.764Z,8.94
2023-03-16T00:12:28.704Z,9.09
2023-03-16T00:15:02.248Z,9.20
2023-03-16T00:17:34.862Z,9.30
2023-03-16T00:20:07.544Z,9.23
2023-03-16T00:22:39.498Z,9.23
2023-03-16T00:25:14.568Z,9.28
2023-03-16T00:27:46.524Z,9.30
2023-03-16T00:30:18.593Z,9.23
2023-03-16T00:32:53.893Z,9.26
2023-03-16T00:35:26.044Z,9.27
2023-03-16T00:37:57.978Z,9.27
2023-03-16T00:40:30.592Z,9.26
2023-03-16T00:43:02.648Z,9.26
2023-03-16T00:45:34.653Z,9.26
2023-03-16T00:48:06.763Z,9.26
2023-03-16T00:50:39.697Z,9.27
2023-03-16T00:53:11.925Z,9.28
2023-03-16T00:55:43.970Z,9.28
2023-03-16T00:58:16.060Z,9.26
2023-03-16T01:00:49.198Z,9.27
2023-03-16T01:03:21.474Z,9.19
2023-03-16T01:05:54.006Z,9.15
2023-03-16T01:08:30.108Z,9.20
2023-03-16T01:11:10.419Z,9.14
2023-03-16T01:13:43.020Z,9.16
2023-03-16T01:16:19.093Z,9.20
2023-03-16T01:18:52.695Z,9.14
2023-03-16T01:21:24.892Z,9.21
2023-03-16T01:23:56.864Z,9.13
2023-03-16T01:26:28.885Z,9.19
2023-03-16T01:29:02.323Z,8.98
2023-03-16T01:31:34.397Z,9.06
2023-03-16T01:34:06.331Z,9.12
2023-03-16T01:36:38.321Z,9.11
2023-03-16T01:39:12.104Z,9.13
2023-03-16T01:41:46.430Z,9.08
2023-03-16T01:44:35.234Z,9.05
2023-03-16T01:47:07.418Z,9.05
2023-03-16T01:49:39.548Z,9.06
2023-03-16T01:52:24.800Z,9.03
2023-03-16T01:55:13.265Z,8.97
2023-03-16T01:57:47.837Z,8.78
2023-03-16T02:00:23.802Z,9.03
2023-03-16T02:03:05.287Z,9.01
2023-03-16T02:06:07.073Z,8.96
2023-03-16T02:08:40.609Z,8.99
2023-03-16T02:11:18.059Z,8.95
2023-03-16T02:13:50.450Z,8.98
2023-03-16T02:16:22.788Z,9.01
2023-03-16T02:18:55.139Z,9.00
2023-03-16T02:21:59.409Z,8.96
2023-03-16T02:24:31.823Z,8.97
2023-03-16T02:27:13.925Z,8.97
2023-03-16T02:30:04.719Z,8.87
2023-03-16T02:32:38.337Z,8.89
2023-03-16T02:35:11.159Z,8.93
2023-03-16T02:37:43.302Z,8.92
2023-03-16T02:40:29.940Z,8.88
2023-03-16T02:43:24.747Z,8.82
2023-03-16T02:46:03.546Z,8.83
2023-03-16T02:49:05.798Z,8.81
2023-03-16T02:51:37.827Z,8.83
2023-03-16T02:54:09.763Z,8.86
2023-03-16T02:56:42.101Z,8.84
2023-03-16T02:59:14.102Z,8.84
2023-03-16T03:01:46.120Z,8.81
2023-03-16T03:04:18.836Z,8.92
2023-03-16T03:06:52.327Z,8.91
2023-03-16T03:09:24.253Z,8.89
2023-03-16T03:11:56.228Z,8.91
2023-03-16T03:14:28.649Z,8.85
2023-03-16T03:17:00.685Z,8.86
2023-03-16T03:19:33.915Z,8.82
2023-03-16T03:22:09.107Z,8.81
2023-03-16T03:24:41.058Z,8.81
2023-03-16T03:27:12.969Z,8.78
2023-03-16T03:29:45.218Z,8.80
2023-03-16T03:32:17.166Z,8.79
2023-03-16T03:34:49.156Z,8.79
2023-03-16T03:37:21.233Z,8.80
2023-03-16T03:39:53.568Z,8.64
2023-03-16T03:42:25.893Z,8.75
2023-03-16T03:44:57.870Z,8.79
2023-03-16T03:47:29.863Z,8.78
2023-03-16T03:50:01.876Z,8.79
2023-03-16T03:52:33.879Z,8.76
2023-03-16T03:55:06.995Z,8.72
2023-03-16T03:57:39.638Z,8.75
2023-03-16T04:00:13.637Z,8.79
2023-03-16T04:02:45.717Z,8.80
2023-03-16T04:05:18.021Z,8.71
2023-03-16T04:07:55.053Z,8.79
2023-03-16T04:10:30.470Z,8.74
2023-03-16T04:13:02.655Z,8.81
2023-03-16T04:15:38.461Z,8.80
2023-03-16T04:18:10.458Z,8.80
2023-03-16T04:20:42.474Z,8.70
2023-03-16T04:23:16.691Z,8.83
2023-03-16T04:25:48.699Z,8.83
2023-03-16T04:28:20.661Z,8.85
2023-03-16T04:30:56.236Z,8.87
2023-03-16T04:33:28.900Z,8.86
2023-03-16T04:36:02.735Z,8.89
2023-03-16T04:38:35.027Z,8.89
2023-03-16T04:41:07.568Z,8.80
2023-03-16T04:43:39.524Z,8.83
2023-03-16T04:46:11.969Z,8.87
2023-03-16T04:48:44.013Z,8.79
2023-03-16T04:51:16.321Z,8.71
2023-03-16T04:53:48.348Z,8.86
2023-03-16T04:56:21.302Z,8.79
2023-03-16T04:58:53.706Z,8.85
2023-03-16T05:01:25.710Z,8.86
2023-03-16T05:03:59.664Z,8.89
2023-03-16T05:06:31.828Z,8.81
2023-03-16T05:09:06.101Z,8.86
2023-03-16T05:11:38.319Z,8.81
2023-03-16T05:14:10.285Z,8.69
2023-03-16T05:16:42.252Z,8.89
2023-03-16T05:19:14.296Z,8.85
2023-03-16T05:21:46.213Z,8.86
2023-03-16T05:24:18.195Z,8.86
2023-03-16T05:26:50.349Z,8.85
2023-03-16T05:29:22.475Z,8.89
2023-03-16T05:31:54.440Z,8.85
2023-03-16T05:34:27.520Z,8.79
2023-03-16T05:36:59.527Z,8.88
2023-03-16T05:39:32.162Z,8.87
2023-03-16T05:42:05.878Z,8.84
2023-03-16T05:44:38.068Z,8.75
2023-03-16T05:47:10.017Z,8.86
2023-03-16T05:49:41.999Z,8.79
2023-03-16T05:52:13.927Z,8.84
2023-03-16T05:54:45.910Z,8.83
2023-03-16T05:57:17.818Z,8.86
2023-03-16T05:59:50.532Z,8.85
2023-03-16T06:02:23.140Z,8.83
2023-03-16T06:04:55.300Z,8.62
2023-03-16T06:07:29.174Z,8.79
2023-03-16T06:10:01.381Z,8.80
2023-03-16T06:12:34.587Z,8.78
2023-03-16T06:15:09.307Z,8.79
2023-03-16T06:17:41.591Z,8.78
2023-03-16T06:20:13.912Z,8.76
2023-03-16T06:22:46.570Z,8.79
2023-03-16T06:25:18.781Z,8.82
2023-03-16T06:27:50.880Z,8.84
2023-03-16T06:30:22.910Z,8.76
2023-03-16T06:32:54.996Z,8.83
2023-03-16T06:35:27.940Z,8.84
2023-03-16T06:38:00.299Z,8.74
2023-03-16T06:40:32.319Z,8.85
2023-03-16T06:43:04.539Z,8.85
2023-03-16T06:45:36.818Z,8.84
2023-03-16T06:48:09.916Z,8.84
2023-03-16T06:50:41.898Z,8.84
2023-03-16T06:53:13.959Z,8.87
2023-03-16T06:55:45.938Z,8.89
2023-03-16T06:58:18.160Z,8.92
2023-03-16T07:00:50.221Z,8.89
2023-03-16T07:03:22.444Z,8.94
2023-03-16T07:05:54.446Z,8.98
2023-03-16T07:08:26.374Z,9.02
2023-03-16T07:10:58.375Z,9.05
2023-03-16T07:13:30.577Z,8.84
2023-03-16T07:16:04.981Z,9.07
2023-03-16T07:18:40.057Z,8.99
2023-03-16T07:21:12.017Z,9.08
2023-03-16T07:23:44.836Z,9.11
2023-03-16T07:26:16.826Z,9.11
2023-03-16T07:28:48.788Z,9.14
2023-03-16T07:31:20.815Z,9.15
2023-03-16T07:33:52.922Z,8.97
2023-03-16T07:36:24.998Z,9.23
2023-03-16T07:38:56.975Z,9.20
2023-03-16T07:41:30.517Z,9.29
2023-03-16T07:44:04.487Z,9.29
2023-03-16T07:46:36.468Z,9.27
2023-03-16T07:49:10.770Z,9.18
2023-03-16T07:51:42.702Z,9.20
2023-03-16T07:54:14.676Z,9.30
2023-03-16T07:56:49.587Z,9.34
2023-03-16T07:59:21.815Z,9.33
2023-03-16T08:01:53.778Z,9.32
2023-03-16T08:04:25.758Z,9.37
2023-03-16T08:07:00.365Z,9.39
2023-03-16T08:09:35.436Z,9.42
2023-03-16T08:12:09.708Z,9.42
2023-03-16T08:14:41.748Z,9.34
2023-03-16T08:17:14.270Z,9.50
2023-03-16T08:19:46.613Z,9.52
2023-03-16T08:22:19.108Z,9.56
2023-03-16T08:24:51.941Z,9.59
2023-03-16T08:27:26.016Z,9.71
2023-03-16T08:29:58.374Z,9.75
2023-03-16T08:32:30.669Z,9.78
2023-03-16T08:35:03.141Z,9.81
2023-03-16T08:37:35.540Z,9.88
2023-03-16T08:40:15.427Z,9.91
2023-03-16T08:42:50.146Z,9.94
2023-03-16T08:45:23.474Z,9.92
2023-03-16T08:47:55.494Z,9.75
2023-03-16T08:50:28.664Z,9.94
2023-03-16T08:53:00.932Z,10.01
2023-03-16T08:55:32.978Z,10.07
2023-03-16T08:58:05.113Z,10.08
2023-03-16T09:00:37.590Z,10.10
2023-03-16T09:03:10.392Z,10.14
2023-03-16T09:05:42.472Z,10.22
2023-03-16T09:08:14.479Z,10.27
2023-03-16T09:10:46.932Z,10.34
2023-03-16T09:13:20.149Z,10.42
2023-03-16T09:15:52.316Z,10.46
2023-03-16T09:18:26.296Z,10.51
2023-03-16T09:21:01.451Z,10.57
2023-03-16T09:23:37.562Z,10.62
2023-03-16T09:26:12.488Z,10.67
2023-03-16T09:28:44.680Z,10.75
2023-03-16T09:31:20.108Z,10.87
2023-03-16T09:33:52.354Z,10.94
2023-03-16T09:36:24.311Z,10.99
2023-03-16T09:38:56.371Z,11.04
2023-03-16T09:41:54.002Z,11.02
2023-03-16T09:44:56.570Z,11.09
2023-03-16T09:47:32.876Z,11.10
2023-03-16T09:50:13.815Z,11.23
2023-03-16T09:53:04.322Z,11.33
2023-03-16T09:55:39.394Z,11.73
2023-03-16T09:58:20.470Z,11.89
2023-03-16T10:01:23.192Z,12.29
2023-03-16T10:04:16.456Z,12.59
2023-03-16T10:07:12.655Z,12.83
2023-03-16T10:10:07.403Z,12.95
2023-03-16T10:12:45.634Z,13.03
2023-03-16T10:15:27.277Z,13.00
2023-03-16T10:18:28.407Z,13.14
2023-03-16T10:21:02.981Z,13.19
2023-03-16T10:23:36.071Z,13.36
2023-03-16T10:26:31.433Z,13.44
2023-03-16T10:29:12.482Z,13.51
2023-03-16T10:31:44.590Z,13.91
2023-03-16T10:34:16.965Z,13.86
2023-03-16T10:36:50.097Z,13.75
2023-03-16T10:39:22.118Z,13.67
2023-03-16T10:41:59.448Z,13.63
2023-03-16T10:44:32.216Z,13.59
2023-03-16T10:47:08.405Z,13.67
2023-03-16T10:49:47.215Z,13.90
2023-03-16T10:52:31.710Z,13.83
2023-03-16T10:55:40.933Z,14.03
2023-03-16T10:58:25.694Z,14.13
2023-03-16T11:00:58.261Z,14.29
2023-03-16T11:03:39.578Z,14.35
2023-03-16T11:06:32.176Z,14.21
2023-03-16T11:09:33.435Z,14.34
2023-03-16T11:12:35.133Z,14.41
2023-03-16T11:15:25.274Z,14.44
2023-03-16T11:17:57.968Z,14.51
2023-03-16T11:20:34.460Z,14.65
2023-03-16T11:23:16.762Z,14.66
2023-03-16T11:25:54.400Z,14.87
2023-03-16T11:28:41.866Z,14.79
2023-03-16T11:31:40.462Z,14.67
2023-03-16T11:34:24.848Z,14.83
2023-03-16T11:37:14.201Z,14.89
2023-03-16T11:40:17.935Z,14.94
2023-03-16T11:42:53.120Z,14.92
2023-03-16T11:45:37.154Z,14.91
2023-03-16T11:48:50.702Z,14.91
2023-03-16T11:52:10.216Z,14.94
2023-03-16T11:54:58.846Z,14.83
2023-03-16T11:57:52.362Z,14.84
2023-03-16T12:00:47.384Z,14.85
2023-03-16T12:03:55.167Z,14.86
2023-03-16T12:06:38.631Z,14.89
2023-03-16T12:09:35.266Z,14.93
2023-03-16T12:12:30.039Z,14.90
2023-03-16T12:15:30.027Z,14.83
2023-03-16T12:18:19.719Z,14.95
2023-03-16T12:21:01.791Z,15.08
2023-03-16T12:23:49.627Z,15.57
2023-03-16T12:26:29.213Z,15.85
2023-03-16T12:29:19.419Z,15.71
2023-03-16T12:32:16.050Z,15.69
2023-03-16T12:35:24.197Z,15.78
2023-03-16T12:38:21.046Z,15.80
2023-03-16T12:41:18.222Z,15.88
2023-03-16T12:44:18.041Z,16.00
2023-03-16T12:46:53.590Z,16.08
2023-03-16T12:49:28.758Z,16.14
2023-03-16T12:52:12.998Z,16.15
2023-03-16T12:55:06.621Z,16.25
2023-03-16T12:57:41.609Z,16.34
2023-03-16T13:00:16.472Z,16.51
2023-03-16T13:02:57.250Z,16.56
2023-03-16T13:05:35.753Z,16.50
2023-03-16T13:08:15.973Z,16.64
2023-03-16T13:11:20.540Z,16.50
2023-03-16T13:14:12.717Z,16.57
2023-03-16T13:16:45.661Z,16.61
2023-03-16T13:19:27.420Z,16.64
2023-03-16T13:22:28.082Z,16.69
2023-03-16T13:25:42.844Z,16.80
2023-03-16T13:28:17.656Z,16.92
2023-03-16T13:30:50.288Z,17.05
2023-03-16T13:33:27.283Z,17.04
2023-03-16T13:36:00.764Z,17.08
2023-03-16T13:38:32.992Z,17.12
2023-03-16T13:41:11.216Z,17.06
2023-03-16T13:43:44.248Z,17.24
2023-03-16T13:46:20.404Z,17.44
2023-03-16T13:48:52.414Z,17.50
2023-03-16T13:51:24.359Z,17.54
2023-03-16T13:53:56.463Z,17.49
2023-03-16T13:56:29.497Z,17.42
2023-03-16T13:59:01.719Z,17.42
2023-03-16T14:01:33.845Z,17.39
2023-03-16T14:04:14.452Z,17.49
2023-03-16T14:07:01.969Z,17.54
2023-03-16T14:09:35.760Z,17.57
2023-03-16T14:12:14.979Z,17.56
2023-03-16T14:14:54.843Z,17.72
2023-03-16T14:17:28.837Z,17.84
2023-03-16T14:20:02.433Z,17.84
2023-03-16T14:22:38.387Z,17.87
2023-03-16T14:25:27.922Z,17.92
2023-03-16T14:28:07.484Z,18.01
2023-03-16T14:30:52.490Z,17.71
2023-03-16T14:33:35.552Z,17.92
2023-03-16T14:36:18.942Z,17.97
2023-03-16T14:38:54.438Z,18.00
2023-03-16T14:41:30.675Z,17.97
2023-03-16T14:44:04.398Z,17.92
2023-03-16T14:46:41.282Z,18.08
2023-03-16T14:49:33.217Z,18.06
2023-03-16T14:52:31.704Z,18.11
2023-03-16T14:55:19.699Z,18.10
2023-03-16T14:57:51.786Z,18.15
2023-03-16T15:00:25.480Z,18.18
2023-03-16T15:03:12.839Z,18.29
2023-03-16T15:05:50.225Z,18.37
2023-03-16T15:08:32.215Z,18.26
2023-03-16T15:11:07.079Z,18.23
2023-03-16T15:13:42.355Z,18.18
2023-03-16T15:16:14.925Z,18.36
2023-03-16T15:18:47.724Z,18.43
2023-03-16T15:21:29.620Z,18.28
2023-03-16T15:24:01.637Z,18.19
2023-03-16T15:26:33.689Z,18.09
2023-03-16T15:29:07.116Z,17.99
2023-03-16T15:31:39.203Z,17.85
2023-03-16T15:34:11.333Z,17.82
2023-03-16T15:36:43.939Z,17.78
2023-03-16T15:39:25.386Z,17.72
2023-03-16T15:41:57.356Z,17.68
2023-03-16T15:44:29.304Z,17.58
2023-03-16T15:47:01.464Z,17.49
2023-03-16T15:49:46.635Z,17.45
2023-03-16T15:52:33.653Z,17.38
2023-03-16T15:55:08.414Z,17.44
2023-03-16T15:57:40.388Z,17.63
2023-03-16T16:00:30.760Z,17.86
2023-03-16T16:03:05.403Z,17.97
2023-03-16T16:05:37.391Z,17.85
2023-03-16T16:08:09.441Z,17.86
2023-03-16T16:10:43.069Z,17.83
2023-03-16T16:13:44.588Z,17.70
2023-03-16T16:16:19.838Z,17.62
2023-03-16T16:18:51.893Z,17.50
2023-03-16T16:21:29.117Z,17.45
2023-03-16T16:24:02.996Z,17.31
2023-03-16T16:26:53.336Z,17.18
2023-03-16T16:29:33.726Z,17.18
2023-03-16T16:32:24.204Z,17.29
2023-03-16T16:35:04.109Z,17.41
2023-03-16T16:37:36.899Z,17.41
2023-03-16T16:40:17.178Z,17.43
2023-03-16T16:42:52.748Z,17.57
2023-03-16T16:45:25.832Z,17.65
2023-03-16T16:47:59.313Z,17.65
2023-03-16T16:50:33.445Z,17.69
2023-03-16T16:53:20.901Z,17.64
2023-03-16T16:55:53.905Z,17.59
2023-03-16T16:58:26.454Z,17.53
2023-03-16T17:00:59.133Z,17.30
2023-03-16T17:03:31.207Z,17.38
2023-03-16T17:06:03.386Z,17.31
2023-03-16T17:08:35.410Z,17.26
2023-03-16T17:11:18.293Z,17.16
2023-03-16T17:13:52.799Z,17.13
2023-03-16T17:16:28.692Z,17.05
2023-03-16T17:19:00.770Z,16.77
2023-03-16T17:21:32.850Z,16.86
2023-03-16T17:24:05.153Z,16.78
2023-03-16T17:26:45.829Z,16.83
2023-03-16T17:29:24.565Z,16.77
2023-03-16T17:31:56.630Z,16.47
2023-03-16T17:34:33.099Z,16.65
2023-03-16T17:37:17.249Z,16.53
2023-03-16T17:39:49.779Z,16.58
2023-03-16T17:42:23.158Z,16.49
2023-03-16T17:44:56.315Z,16.54
2023-03-16T17:47:31.257Z,16.52
2023-03-16T17:50:11.279Z,16.42
2023-03-16T17:52:43.278Z,16.44
2023-03-16T17:55:20.306Z,16.42
2023-03-16T17:57:55.211Z,16.42
2023-03-16T18:00:35.066Z,16.38
2023-03-16T18:03:14.467Z,16.28
2023-03-16T18:05:46.645Z,16.27
2023-03-16T18:08:28.191Z,16.21
2023-03-16T18:11:04.726Z,16.18
2023-03-16T18:13:40.031Z,16.18
2023-03-16T18:16:23.139Z,16.14
2023-03-16T18:19:00.399Z,16.13
2023-03-16T18:21:33.565Z,15.89
2023-03-16T18:24:19.963Z,16.10
2023-03-16T18:26:52.091Z,16.11
2023-03-16T18:29:24.186Z,16.08
2023-03-16T18:31:58.327Z,16.03
2023-03-16T18:34:34.859Z,16.00
2023-03-16T18:37:09.618Z,15.89
2023-03-16T18:39:41.570Z,15.90
2023-03-16T18:42:31.910Z,15.84
2023-03-16T18:45:04.490Z,15.84
2023-03-16T18:47:37.184Z,15.82
2023-03-16T18:50:24.830Z,15.78
2023-03-16T18:52:58.345Z,15.76
2023-03-16T18:55:31.095Z,15.76
2023-03-16T18:58:18.089Z,15.74
2023-03-16T19:00:59.586Z,15.69
2023-03-16T19:03:39.452Z,15.68
2023-03-16T19:06:22.939Z,15.65
2023-03-16T19:09:01.014Z,15.64
2023-03-16T19:11:37.167Z,15.63
2023-03-16T19:14:26.754Z,15.56
2023-03-16T19:16:59.266Z,15.51
2023-03-16T19:19:31.332Z,15.44
2023-03-16T19:22:13.757Z,15.33
2023-03-16T19:24:48.928Z,15.28
2023-03-16T19:27:38.215Z,15.17
2023-03-16T19:30:24.042Z,15.12
2023-03-16T19:32:57.942Z,15.12
2023-03-16T19:35:48.435Z,15.10
2023-03-16T19:38:24.284Z,14.97
2023-03-16T19:41:00.617Z,15.01
2023-03-16T19:43:32.744Z,14.96
2023-03-16T19:46:04.950Z,14.67
2023-03-16T19:48:37.273Z,14.87
2023-03-16T19:51:14.982Z,14.83
2023-03-16T19:53:47.118Z,14.75
2023-03-16T19:56:23.211Z,14.80
2023-03-16T19:58:56.489Z,14.76
2023-03-16T20:01:33.090Z,14.73
2023-03-16T20:04:10.452Z,14.69
2023-03-16T20:06:42.629Z,14.60
2023-03-16T20:09:14.615Z,14.60
2023-03-16T20:11:48.622Z,14.62
2023-03-16T20:14:33.129Z,14.53
2023-03-16T20:17:15.013Z,14.56
2023-03-16T20:19:47.272Z,14.53
2023-03-16T20:22:22.909Z,14.32
2023-03-16T20:24:55.967Z,14.47
2023-03-16T20:27:28.403Z,14.34
2023-03-16T20:30:00.590Z,14.42
2023-03-16T20:32:36.176Z,14.40
2023-03-16T20:35:19.142Z,14.37
2023-03-16T20:37:52.973Z,14.37
2023-03-16T20:40:25.102Z,14.33
2023-03-16T20:42:57.131Z,14.33
2023-03-16T20:45:30.678Z,14.33
2023-03-16T20:48:02.873Z,14.28
2023-03-16T20:50:34.841Z,14.25
2023-03-16T20:53:07.147Z,14.22
2023-03-16T20:55:39.713Z,14.19
2023-03-16T20:58:22.360Z,14.15
2023-03-16T21:01:01.037Z,13.99
2023-03-16T21:03:33.793Z,14.11
2023-03-16T21:06:18.117Z,14.13
2023-03-16T21:08:56.230Z,14.16
2023-03-16T21:11:37.192Z,14.03
2023-03-16T21:14:17.247Z,14.09
2023-03-16T21:16:51.004Z,14.00
2023-03-16T21:19:24.149Z,14.04
2023-03-16T21:21:56.357Z,13.97
2023-03-16T21:24:28.280Z,13.92
2023-03-16T21:27:00.242Z,14.02
2023-03-16T21:29:32.566Z,14.01
2023-03-16T21:32:20.114Z,13.88
2023-03-16T21:34:52.748Z,13.92
2023-03-16T21:37:25.037Z,13.86
2023-03-16T21:39:57.570Z,13.84
2023-03-16T21:42:30.608Z,13.86
2023-03-16T21:45:02.583Z,13.86
2023-03-16T21:47:35.832Z,13.83
2023-03-16T21:50:22.775Z,13.76
2023-03-16T21:52:54.942Z,13.70
2023-03-16T21:55:29.619Z,13.67
2023-03-16T21:58:02.820Z,13.58
2023-03-16T22:00:35.478Z,13.63
2023-03-16T22:03:44.274Z,13.58
2023-03-16T22:06:25.568Z,13.57
2023-03-16T22:08:59.836Z,13.60
2023-03-16T22:11:32.083Z,13.55
2023-03-16T22:14:04.775Z,13.52
2023-03-16T22:16:38.093Z,13.45
2023-03-16T22:19:14.533Z,13.39
2023-03-16T22:21:47.772Z,13.36
2023-03-16T22:24:24.864Z,13.35
2023-03-16T22:26:58.212Z,13.30
2023-03-16T22:29:33.748Z,13.20
2023-03-16T22:32:15.529Z,13.23
2023-03-16T22:34:56.373Z,13.22
2023-03-16T22:37:29.272Z,13.22
2023-03-16T22:40:02.941Z,13.24
2023-03-16T22:42:38.617Z,13.24
2023-03-16T22:45:33.669Z,13.19
2023-03-16T22:48:26.674Z,13.09
2023-03-16T22:51:04.974Z,13.17
2023-03-16T22:53:45.951Z,13.18
2023-03-16T22:56:19.767Z,13.01
2023-03-16T22:59:01.072Z,13.14
2023-03-16T23:01:45.919Z,13.14
2023-03-16T23:04:30.421Z,13.15
2023-03-16T23:07:02.616Z,13.13
2023-03-16T23:09:34.630Z,12.92
2023-03-16T23:12:21.473Z,12.97
2023-03-16T23:14:53.438Z,13.04
2023-03-16T23:17:25.537Z,12.83
2023-03-16T23:19:57.482Z,13.05
2023-03-16T23:22:29.551Z,12.98
2023-03-16T23:25:01.608Z,12.94
2023-03-16T23:27:33.583Z,12.88
2023-03-16T23:30:18.907Z,12.73
2023-03-16T23:32:53.598Z,12.78
2023-03-16T23:35:29.854Z,12.78
2023-03-16T23:38:01.866Z,12.86
2023-03-16T23:40:38.375Z,12.87
2023-03-16T23:43:10.403Z,12.83
2023-03-16T23:45:46.725Z,12.84
2023-03-16T23:48:22.183Z,12.81
2023-03-16T23:50:56.451Z,12.80
2023-03-16T23:53:28.599Z,12.84
2023-03-16T23:56:00.984Z,12.86
2023-03-16T23:58:32.946Z,12.70
